Flight Briefing for CPX792

Departure Arrival
Auckland International Airport (NZAA)
Click to view FAA NOTAMS
Kingsford Smith International Airport (YSSY)
Click to view FAA NOTAMS
Departure Time Arrival Time
N/A N/A
Aircraft Distance
B747-400BCF 1167nm
Departure METAR Arrival METAR
NZAA 250230Z AUTO 21004KT 9999 NCD 17/11 Q1023 NOSIG YSSY 250230Z 33007KT CAVOK 25/05 Q1017 NOSIG
Suggested Route
MADEP N774 MARLN


View recent IFR Routes data
Notes



Charts and Procedures

Charts for NZAA
No chart available
Charts for YSSY
No chart available

Windy.com Weather Map